Time;durP1;ratioP1;P1;durP2;ratioP2;P2;SDS_P1;SDS_P2;PMS_P1;PMS_P2;Temp;Humidity;BMP_temperature;BMP_pressure;BME280_temperature;BME280_humidity;BME280_pressure;Samples;Min_cycle;Max_cycle;Signal;HPM_P1;HPM_P2
2022/03/27 00:00:40;;;;;;;10.07;4.20;;;7.10;99.90;;;;;;5021833;28;20431;-74
2022/03/27 00:03:06;;;;;;;9.75;2.97;;;7.00;99.90;;;;;;5023588;28;20056;-75
2022/03/27 00:05:32;;;;;;;13.32;4.05;;;7.10;99.90;;;;;;5031415;28;20046;-75
2022/03/27 00:07:58;;;;;;;13.73;3.67;;;7.00;99.90;;;;;;5015411;28;20133;-79
2022/03/27 00:10:25;;;;;;;10.63;4.35;;;7.00;99.90;;;;;;5033042;28;20128;-80
2022/03/27 00:12:51;;;;;;;12.23;3.83;;;7.00;99.90;;;;;;5031626;28;20042;-79
2022/03/27 00:15:17;;;;;;;11.93;4.13;;;7.00;99.90;;;;;;5013888;28;20405;-76
2022/03/27 00:17:43;;;;;;;12.40;4.38;;;6.90;99.90;;;;;;5033032;28;20080;-72
2022/03/27 00:20:09;;;;;;;10.95;3.55;;;7.10;99.90;;;;;;5032907;28;20088;-77
2022/03/27 00:22:38;;;;;;;13.13;4.50;;;6.90;99.90;;;;;;5032974;28;20037;-79
2022/03/27 00:25:08;;;;;;;15.38;4.55;;;6.90;99.90;;;;;;5032439;28;20053;-76
2022/03/27 00:27:34;;;;;;;9.45;3.33;;;6.90;99.90;;;;;;5033861;28;20034;-77
2022/03/27 00:30:01;;;;;;;12.15;4.00;;;6.80;99.90;;;;;;5047481;28;20060;-75
2022/03/27 00:32:26;;;;;;;9.68;3.05;;;6.80;99.90;;;;;;5051584;28;20098;-73
2022/03/27 00:34:53;;;;;;;10.98;3.13;;;6.70;99.90;;;;;;5040764;28;20037;-79
2022/03/27 00:37:19;;;;;;;10.77;3.55;;;6.70;99.90;;;;;;5036648;28;20047;-75
2022/03/27 00:39:45;;;;;;;9.10;3.80;;;6.60;99.90;;;;;;5016583;28;20382;-79
2022/03/27 00:42:11;;;;;;;11.55;3.75;;;6.60;99.90;;;;;;5033087;28;20068;-71
2022/03/27 00:44:38;;;;;;;10.30;3.60;;;6.60;99.90;;;;;;5032693;28;20049;-79
2022/03/27 00:47:07;;;;;;;12.90;3.13;;;6.60;99.90;;;;;;5033075;28;20446;-78
2022/03/27 00:49:34;;;;;;;13.55;4.15;;;6.60;99.90;;;;;;5032669;28;20524;-78
2022/03/27 00:52:00;;;;;;;10.77;3.08;;;6.60;99.90;;;;;;5032730;28;20087;-79
2022/03/27 00:54:27;;;;;;;10.13;3.03;;;6.60;99.90;;;;;;5032805;28;20045;-78
2022/03/27 00:56:54;;;;;;;12.05;3.13;;;6.60;99.90;;;;;;5014927;28;20564;-79
2022/03/27 00:59:19;;;;;;;11.65;3.60;;;6.60;99.90;;;;;;5032633;28;20046;-76
2022/03/27 01:01:45;;;;;;;11.70;3.63;;;6.60;99.90;;;;;;5032204;28;20446;-77
2022/03/27 01:04:12;;;;;;;11.85;3.15;;;6.60;99.90;;;;;;5032689;28;20045;-80
2022/03/27 01:06:43;;;;;;;13.45;3.20;;;6.60;99.90;;;;;;5032442;28;20512;-79
2022/03/27 01:09:35;;;;;;;10.20;3.08;;;6.60;99.90;;;;;;5032336;28;20056;-80
2022/03/27 01:12:18;;;;;;;15.68;3.78;;;6.80;99.90;;;;;;5017562;28;20128;-79
2022/03/27 01:14:44;;;;;;;10.90;3.22;;;6.50;99.90;;;;;;5032636;28;20183;-71
2022/03/27 01:17:14;;;;;;;10.40;3.13;;;6.50;99.90;;;;;;5032147;28;20069;-78
2022/03/27 01:19:43;;;;;;;10.95;2.90;;;6.40;99.90;;;;;;5036095;28;20124;-80
2022/03/27 01:22:09;;;;;;;12.52;3.50;;;6.40;99.90;;;;;;5018384;28;20515;-80
2022/03/27 01:24:35;;;;;;;13.85;3.28;;;6.30;99.90;;;;;;5036086;28;20049;-80
2022/03/27 01:27:01;;;;;;;13.20;3.20;;;6.30;99.90;;;;;;5018423;28;20091;-79
2022/03/27 01:29:27;;;;;;;11.27;4.43;;;6.20;99.90;;;;;;5036568;28;20045;-80
2022/03/27 01:31:53;;;;;;;13.13;4.80;;;6.20;99.90;;;;;;5001487;28;20560;-80
2022/03/27 01:34:20;;;;;;;11.65;4.32;;;6.10;99.90;;;;;;5018390;28;20128;-80
2022/03/27 01:36:45;;;;;;;11.27;3.22;;;6.10;99.90;;;;;;5036240;28;20449;-70
2022/03/27 01:39:13;;;;;;;13.20;4.05;;;6.10;99.90;;;;;;5018988;28;20077;-77
2022/03/27 01:41:40;;;;;;;12.75;3.97;;;6.10;99.90;;;;;;5036742;28;20048;-79
2022/03/27 01:44:08;;;;;;;17.08;5.32;;;6.00;99.90;;;;;;5036704;28;20057;-80
2022/03/27 01:46:37;;;;;;;13.32;4.65;;;6.30;99.90;;;;;;5036274;28;20128;-80
2022/03/27 01:49:07;;;;;;;14.85;4.60;;;6.00;99.90;;;;;;5032084;28;20053;-75
2022/03/27 01:51:33;;;;;;;12.30;4.30;;;6.00;99.90;;;;;;5051879;28;20056;-78
2022/03/27 01:53:59;;;;;;;11.27;4.22;;;6.00;99.90;;;;;;5052314;28;20048;-79
2022/03/27 01:56:25;;;;;;;15.30;4.95;;;6.00;99.90;;;;;;5048995;28;20041;-80
2022/03/27 01:58:51;;;;;;;14.27;4.60;;;6.00;99.90;;;;;;5036525;28;20052;-80
2022/03/27 02:01:19;;;;;;;11.30;4.10;;;6.00;99.90;;;;;;5018910;28;20172;-80
2022/03/27 02:03:45;;;;;;;13.85;4.70;;;6.10;99.90;;;;;;5035927;28;20049;-73
2022/03/27 02:06:12;;;;;;;17.20;4.80;;;5.90;99.90;;;;;;5035352;28;20052;-80
2022/03/27 02:08:38;;;;;;;14.65;4.30;;;5.90;99.90;;;;;;5035273;28;20065;-78
2022/03/27 02:11:04;;;;;;;15.50;4.57;;;5.80;99.90;;;;;;5017728;28;20091;-73
2022/03/27 02:13:30;;;;;;;13.90;5.03;;;5.80;99.90;;;;;;5035562;28;20041;-80
2022/03/27 02:15:59;;;;;;;15.27;4.20;;;5.70;99.90;;;;;;5035550;28;20544;-73
2022/03/27 02:18:29;;;;;;;10.45;4.03;;;5.70;99.90;;;;;;5035330;28;20080;-79
2022/03/27 02:20:57;;;;;;;11.65;3.80;;;5.70;99.90;;;;;;5034621;28;20128;-80
2022/03/27 02:23:23;;;;;;;12.77;3.72;;;5.70;99.90;;;;;;5035560;28;20127;-78
2022/03/27 02:25:50;;;;;;;14.50;4.43;;;5.60;99.90;;;;;;5028160;28;20060;-73
2022/03/27 02:28:16;;;;;;;13.43;4.20;;;5.60;99.90;;;;;;5034848;28;20064;-77
2022/03/27 02:30:42;;;;;;;13.18;4.53;;;5.60;99.90;;;;;;5040061;28;20041;-76
2022/03/27 02:33:09;;;;;;;16.27;3.90;;;5.60;99.90;;;;;;5038102;28;20435;-73
2022/03/27 02:35:35;;;;;;;12.45;3.90;;;5.60;99.90;;;;;;5035922;28;20069;-73
2022/03/27 02:38:04;;;;;;;12.45;3.95;;;5.60;99.90;;;;;;5001496;28;20128;-78
2022/03/27 02:40:31;;;;;;;14.05;3.90;;;5.50;99.90;;;;;;5035456;28;20112;-79
2022/03/27 02:42:59;;;;;;;11.63;4.20;;;5.50;99.90;;;;;;5034827;28;20041;-79
2022/03/27 02:45:26;;;;;;;10.20;3.90;;;5.50;99.90;;;;;;5034790;28;20056;-79
2022/03/27 02:47:52;;;;;;;14.25;4.07;;;5.50;99.90;;;;;;5035027;28;20045;-79
2022/03/27 02:50:18;;;;;;;13.95;4.28;;;5.50;99.90;;;;;;5000559;28;20054;-79
2022/03/27 02:52:44;;;;;;;13.07;4.10;;;5.50;99.90;;;;;;5034532;28;20037;-79
2022/03/27 02:55:10;;;;;;;14.27;4.03;;;5.90;99.90;;;;;;5034778;28;20049;-78
2022/03/27 02:57:36;;;;;;;11.35;4.18;;;5.50;99.90;;;;;;5017079;28;20128;-80
2022/03/27 03:00:06;;;;;;;11.88;4.07;;;5.50;99.90;;;;;;5034528;28;20549;-78
2022/03/27 03:02:32;;;;;;;12.45;4.60;;;5.50;99.90;;;;;;5016829;28;20059;-80
2022/03/27 03:04:58;;;;;;;11.27;3.90;;;5.50;99.90;;;;;;5016464;28;20125;-80
2022/03/27 03:07:24;;;;;;;11.80;4.10;;;5.50;99.90;;;;;;5034038;28;20128;-78
2022/03/27 03:09:50;;;;;;;11.85;3.83;;;5.50;99.90;;;;;;5034275;28;20048;-80
2022/03/27 03:12:16;;;;;;;13.48;3.97;;;5.50;99.90;;;;;;5034443;28;20052;-80
2022/03/27 03:14:42;;;;;;;13.98;4.10;;;5.50;99.90;;;;;;5016409;28;20397;-79
2022/03/27 03:17:08;;;;;;;10.05;3.47;;;5.50;99.90;;;;;;5016527;28;20053;-80
2022/03/27 03:19:34;;;;;;;13.63;4.25;;;5.60;99.90;;;;;;5034050;28;20046;-80
2022/03/27 03:22:00;;;;;;;12.02;4.00;;;5.60;99.90;;;;;;5034242;28;20404;-78
2022/03/27 03:24:27;;;;;;;13.77;4.07;;;5.60;99.90;;;;;;5033677;28;20107;-80
2022/03/27 03:26:53;;;;;;;13.85;3.63;;;5.60;99.90;;;;;;5034053;28;20046;-80
2022/03/27 03:29:21;;;;;;;10.02;3.55;;;5.60;99.90;;;;;;5034160;28;20050;-79
2022/03/27 03:31:47;;;;;;;12.13;3.90;;;5.60;99.90;;;;;;5016004;28;20088;-80
2022/03/27 03:34:13;;;;;;;17.70;4.22;;;5.70;99.90;;;;;;5016081;28;20071;-79
2022/03/27 03:36:38;;;;;;;15.65;4.18;;;5.80;99.90;;;;;;5033586;28;20041;-80
2022/03/27 03:39:04;;;;;;;17.05;4.38;;;5.80;99.90;;;;;;5033659;28;20080;-80
2022/03/27 03:41:30;;;;;;;12.60;3.95;;;5.80;99.90;;;;;;5033276;28;20505;-79
2022/03/27 03:43:55;;;;;;;19.40;4.10;;;5.90;99.90;;;;;;5033568;28;20393;-80
2022/03/27 03:46:21;;;;;;;16.95;4.25;;;5.90;99.90;;;;;;5033645;28;20484;-79
2022/03/27 03:48:47;;;;;;;23.08;5.45;;;5.90;99.90;;;;;;5033612;28;20045;-76
2022/03/27 03:51:12;;;;;;;16.00;3.63;;;5.90;99.90;;;;;;5033610;28;20506;-80
2022/03/27 03:53:38;;;;;;;20.63;4.95;;;6.20;99.90;;;;;;5016268;28;20170;-80
2022/03/27 03:56:05;;;;;;;22.80;4.80;;;5.90;99.90;;;;;;5033598;28;20476;-80
2022/03/27 03:58:31;;;;;;;13.75;3.53;;;5.90;99.90;;;;;;5033315;28;20041;-80
2022/03/27 04:00:57;;;;;;;16.63;4.30;;;5.90;99.90;;;;;;5033506;28;20088;-80
2022/03/27 04:03:23;;;;;;;21.05;4.13;;;5.90;99.90;;;;;;5033308;28;20041;-80
2022/03/27 04:05:48;;;;;;;27.30;4.57;;;6.00;99.90;;;;;;5015671;28;20124;-78
2022/03/27 04:08:14;;;;;;;26.63;5.30;;;6.00;99.90;;;;;;5033219;28;20049;-80
2022/03/27 04:10:41;;;;;;;25.75;6.25;;;6.00;99.90;;;;;;5015705;28;20095;-80
2022/03/27 04:13:09;;;;;;;31.45;6.47;;;6.50;99.90;;;;;;5032893;28;20049;-79
2022/03/27 04:15:37;;;;;;;32.60;7.28;;;6.00;99.90;;;;;;5033758;28;20395;-79
2022/03/27 04:18:03;;;;;;;23.77;6.22;;;6.00;99.90;;;;;;5017109;28;20049;-79
2022/03/27 04:20:29;;;;;;;30.70;6.20;;;6.00;99.90;;;;;;5042817;28;20097;-80
2022/03/27 04:22:55;;;;;;;19.88;4.15;;;6.00;99.90;;;;;;5052214;28;20056;-80
2022/03/27 04:25:21;;;;;;;25.77;6.63;;;6.00;99.90;;;;;;5029447;28;20073;-71
2022/03/27 04:27:47;;;;;;;34.40;7.53;;;6.00;99.90;;;;;;5035572;28;20055;-71
2022/03/27 04:30:13;;;;;;;28.25;5.90;;;6.00;99.90;;;;;;5020851;28;20049;-72
2022/03/27 04:32:40;;;;;;;31.25;7.55;;;6.00;99.90;;;;;;5015448;28;20049;-72
2022/03/27 04:35:08;;;;;;;28.38;6.47;;;6.00;99.90;;;;;;5015095;28;20140;-73
2022/03/27 04:37:44;;;;;;;33.20;6.65;;;6.10;99.90;;;;;;5015690;28;20099;-70
2022/03/27 04:40:13;;;;;;;30.45;6.10;;;6.10;99.90;;;;;;5033183;28;20077;-73
2022/03/27 04:42:40;;;;;;;30.05;5.47;;;6.10;99.90;;;;;;5032636;28;20057;-72
2022/03/27 04:45:06;;;;;;;31.65;6.95;;;6.10;99.90;;;;;;5032705;28;20045;-72
2022/03/27 04:47:32;;;;;;;26.88;5.72;;;6.10;99.90;;;;;;5032991;28;20103;-75
2022/03/27 04:49:58;;;;;;;32.85;6.20;;;6.10;99.90;;;;;;5014860;28;20126;-72
2022/03/27 04:52:24;;;;;;;36.78;6.47;;;6.10;99.90;;;;;;5033439;28;20053;-71
2022/03/27 04:54:50;;;;;;;32.22;6.15;;;6.20;99.90;;;;;;5002235;28;20057;-78
2022/03/27 04:57:16;;;;;;;36.10;6.88;;;6.20;99.90;;;;;;5037140;28;20064;-79
2022/03/27 04:59:41;;;;;;;15.90;4.47;;;6.20;99.90;;;;;;5018758;28;20082;-74
2022/03/27 05:02:07;;;;;;;22.48;3.70;;;6.20;99.90;;;;;;5036613;28;20054;-78
2022/03/27 05:04:33;;;;;;;17.80;3.42;;;6.30;99.90;;;;;;5036514;28;20128;-78
2022/03/27 05:06:59;;;;;;;16.55;5.25;;;6.20;99.90;;;;;;5036704;28;20073;-73
2022/03/27 05:09:24;;;;;;;13.35;3.47;;;6.20;99.90;;;;;;5036353;28;20058;-79
2022/03/27 05:11:50;;;;;;;23.02;4.15;;;6.10;99.90;;;;;;5036862;28;20041;-74
2022/03/27 05:14:16;;;;;;;20.02;4.80;;;6.20;99.90;;;;;;5036446;28;20049;-75
2022/03/27 05:16:42;;;;;;;21.75;3.95;;;6.10;99.90;;;;;;5018714;28;20042;-70
2022/03/27 05:19:08;;;;;;;26.45;4.60;;;6.20;99.90;;;;;;5036251;28;20049;-74
2022/03/27 05:21:34;;;;;;;20.50;3.85;;;6.10;99.90;;;;;;5036142;28;20037;-73
2022/03/27 05:24:01;;;;;;;22.02;5.00;;;6.70;99.90;;;;;;5036437;28;20042;-74
2022/03/27 05:26:27;;;;;;;22.30;4.10;;;6.20;99.90;;;;;;5036245;28;20075;-72
2022/03/27 05:28:54;;;;;;;16.30;4.38;;;6.20;99.90;;;;;;5036318;28;20045;-72
2022/03/27 05:31:21;;;;;;;24.88;4.93;;;6.10;99.90;;;;;;5035579;28;20045;-72
2022/03/27 05:33:47;;;;;;;19.35;4.75;;;6.10;99.90;;;;;;5036232;28;20251;-75
2022/03/27 05:36:13;;;;;;;19.15;3.63;;;6.10;99.90;;;;;;5035866;28;20037;-71
2022/03/27 05:38:40;;;;;;;22.88;4.63;;;6.30;99.90;;;;;;5018322;28;20536;-78
2022/03/27 05:41:09;;;;;;;28.10;5.32;;;6.20;99.90;;;;;;5035923;28;20041;-78
2022/03/27 05:43:36;;;;;;;17.17;3.75;;;6.20;99.90;;;;;;5017543;28;20049;-78
2022/03/27 05:46:02;;;;;;;20.38;3.85;;;6.20;99.90;;;;;;5001721;28;20053;-75
2022/03/27 05:48:28;;;;;;;36.03;4.28;;;6.20;99.90;;;;;;5035578;28;20121;-79
2022/03/27 05:50:54;;;;;;;28.42;4.80;;;6.20;99.90;;;;;;5035365;28;20117;-79
2022/03/27 05:53:20;;;;;;;19.92;4.75;;;6.20;99.90;;;;;;5035881;28;20042;-71
2022/03/27 05:55:47;;;;;;;23.90;4.68;;;6.20;99.90;;;;;;5035969;28;20103;-74
2022/03/27 05:58:13;;;;;;;21.15;3.92;;;6.30;99.90;;;;;;5035686;28;20128;-74
2022/03/27 06:00:40;;;;;;;25.90;4.35;;;6.20;99.90;;;;;;5035563;28;20046;-78
2022/03/27 06:03:07;;;;;;;22.17;4.80;;;6.20;99.90;;;;;;5017014;28;20493;-71
2022/03/27 06:05:33;;;;;;;22.85;3.90;;;6.20;99.90;;;;;;5034867;28;20041;-76
2022/03/27 06:08:00;;;;;;;27.60;3.92;;;6.30;99.90;;;;;;5035237;28;20099;-74
2022/03/27 06:10:33;;;;;;;22.23;4.82;;;6.30;99.90;;;;;;5016794;28;20049;-74
2022/03/27 06:13:00;;;;;;;24.17;3.75;;;6.30;99.90;;;;;;5034496;28;20095;-79
2022/03/27 06:15:28;;;;;;;19.70;4.03;;;6.30;99.90;;;;;;5038295;28;20033;-77
2022/03/27 06:17:56;;;;;;;29.10;5.20;;;6.30;99.90;;;;;;5052975;28;20044;-74
2022/03/27 06:20:23;;;;;;;27.23;4.50;;;6.60;99.90;;;;;;5042068;28;20033;-74
2022/03/27 06:22:51;;;;;;;22.50;4.30;;;6.30;99.90;;;;;;5035811;28;20054;-78
2022/03/27 06:25:20;;;;;;;22.83;4.75;;;6.30;99.90;;;;;;5035377;28;20131;-69
2022/03/27 06:27:46;;;;;;;17.42;4.10;;;6.40;99.90;;;;;;5016403;28;20143;-79
2022/03/27 06:30:18;;;;;;;29.65;5.18;;;6.40;99.90;;;;;;5034225;28;20044;-70
2022/03/27 06:32:45;;;;;;;22.63;4.70;;;6.60;99.90;;;;;;5034246;28;20067;-79
2022/03/27 06:35:13;;;;;;;30.92;5.53;;;6.40;99.90;;;;;;5033165;28;20638;-80
2022/03/27 06:37:40;;;;;;;22.23;4.60;;;6.40;99.90;;;;;;5016594;28;20052;-79
2022/03/27 06:40:07;;;;;;;28.77;6.10;;;6.30;99.90;;;;;;5034080;28;20401;-74
2022/03/27 06:42:33;;;;;;;34.88;7.15;;;6.40;99.90;;;;;;5033885;28;20073;-79
2022/03/27 06:44:59;;;;;;;25.83;4.32;;;6.40;99.90;;;;;;5033671;28;20539;-77
2022/03/27 06:47:26;;;;;;;24.35;4.60;;;6.80;99.90;;;;;;5033631;28;20378;-72
2022/03/27 06:49:53;;;;;;;27.23;5.50;;;6.50;99.90;;;;;;5033187;28;20045;-70
2022/03/27 06:52:20;;;;;;;27.75;5.15;;;6.50;99.90;;;;;;5032941;28;20477;-81
2022/03/27 06:54:46;;;;;;;23.17;5.03;;;6.60;99.90;;;;;;5033435;28;20079;-72
2022/03/27 06:57:12;;;;;;;25.63;4.65;;;6.60;99.90;;;;;;5024224;28;20504;-71
2022/03/27 07:05:07;;;;;;;20.90;5.07;;;6.60;99.90;;;;;;5011633;28;20079;-71
2022/03/27 07:07:32;;;;;;;32.75;5.25;;;6.60;99.90;;;;;;4970456;28;1095589;-80
2022/03/27 07:09:58;;;;;;;23.23;4.13;;;6.60;99.90;;;;;;5014457;28;20077;-73
2022/03/27 07:12:25;;;;;;;29.45;5.50;;;6.70;99.90;;;;;;5014709;28;20046;-73
2022/03/27 07:14:51;;;;;;;26.55;4.72;;;6.90;99.90;;;;;;5013775;28;20034;-79
2022/03/27 07:17:18;;;;;;;29.60;4.47;;;6.70;99.90;;;;;;5004006;28;20054;-76
2022/03/27 07:19:44;;;;;;;24.08;5.07;;;6.70;99.90;;;;;;5004601;28;20049;-79
2022/03/27 07:22:10;;;;;;;23.70;5.35;;;6.70;99.90;;;;;;5003561;28;20042;-76
2022/03/27 07:24:36;;;;;;;26.70;4.90;;;6.60;99.90;;;;;;5013876;28;20050;-74
2022/03/27 07:27:02;;;;;;;24.70;5.25;;;6.60;99.90;;;;;;4996778;28;20049;-79
2022/03/27 07:29:30;;;;;;;16.95;4.85;;;6.60;99.90;;;;;;4996617;28;20057;-76
2022/03/27 07:31:57;;;;;;;24.65;4.88;;;6.70;99.90;;;;;;4996558;28;20049;-73
2022/03/27 07:34:23;;;;;;;32.33;5.07;;;6.70;99.90;;;;;;5014196;28;20074;-79
2022/03/27 07:36:49;;;;;;;25.50;5.35;;;6.70;99.90;;;;;;5013427;28;20053;-73
2022/03/27 07:39:15;;;;;;;26.38;5.72;;;6.80;99.90;;;;;;5013378;28;20054;-70
2022/03/27 07:41:40;;;;;;;27.13;5.13;;;6.90;99.90;;;;;;4977997;28;20057;-73
2022/03/27 07:44:08;;;;;;;20.42;5.50;;;6.90;99.90;;;;;;5011797;28;20049;-73
2022/03/27 07:46:33;;;;;;;27.05;4.70;;;6.90;99.90;;;;;;5013369;28;20414;-75
2022/03/27 07:48:59;;;;;;;21.33;4.78;;;6.90;99.90;;;;;;5014052;28;20042;-71
2022/03/27 07:51:25;;;;;;;19.05;5.00;;;6.90;99.90;;;;;;5013813;28;20393;-80
2022/03/27 07:53:51;;;;;;;37.42;6.40;;;7.10;99.90;;;;;;5013567;28;20041;-79
2022/03/27 07:56:18;;;;;;;20.35;4.50;;;7.00;99.90;;;;;;5013877;28;20498;-72
2022/03/27 07:58:44;;;;;;;25.75;5.00;;;7.00;99.90;;;;;;5014070;28;20038;-76
2022/03/27 08:01:12;;;;;;;18.48;5.88;;;7.00;99.90;;;;;;5015104;28;20038;-71
2022/03/27 08:03:39;;;;;;;23.88;4.47;;;7.00;99.90;;;;;;5016165;28;20050;-77
2022/03/27 08:06:06;;;;;;;35.17;6.20;;;7.20;99.90;;;;;;5021725;28;20482;-79
2022/03/27 08:08:32;;;;;;;28.63;5.28;;;7.20;99.90;;;;;;5026775;28;20046;-74
2022/03/27 08:10:58;;;;;;;18.40;3.67;;;7.40;99.90;;;;;;5030372;28;20060;-71
2022/03/27 08:13:23;;;;;;;27.20;4.63;;;7.40;99.90;;;;;;5022922;28;20045;-73
2022/03/27 08:15:49;;;;;;;20.20;4.75;;;7.70;99.90;;;;;;5018248;28;20046;-74
2022/03/27 08:18:15;;;;;;;30.30;5.55;;;7.50;99.90;;;;;;5017973;28;20041;-71
2022/03/27 08:20:41;;;;;;;24.83;5.85;;;7.70;99.90;;;;;;5021302;28;20042;-68
2022/03/27 08:23:07;;;;;;;25.38;4.72;;;7.30;99.90;;;;;;5018695;28;20449;-69
2022/03/27 08:28:20;;;;;;;30.33;8.20;;;7.40;99.90;;;;;;5028070;28;20045;-79
2022/03/27 08:30:49;;;;;;;20.73;6.82;;;7.50;99.90;;;;;;5015862;28;20048;-79
2022/03/27 08:33:16;;;;;;;19.60;4.85;;;7.50;99.90;;;;;;5027265;28;20095;-73
2022/03/27 08:35:43;;;;;;;28.35;4.78;;;7.60;99.90;;;;;;5004241;28;20045;-71
2022/03/27 08:38:10;;;;;;;23.73;5.28;;;7.70;99.90;;;;;;5018426;28;20033;-78
2022/03/27 08:40:38;;;;;;;22.98;4.70;;;7.70;99.90;;;;;;5013237;28;20054;-72
2022/03/27 08:43:13;;;;;;;25.20;3.75;;;7.80;99.90;;;;;;5012335;28;20452;-77
2022/03/27 08:45:44;;;;;;;16.40;5.75;;;7.70;99.90;;;;;;5013954;28;20506;-71
2022/03/27 08:48:11;;;;;;;21.90;5.18;;;7.70;99.90;;;;;;5010414;28;20033;-79
2022/03/27 08:51:28;;;;;;;24.45;4.75;;;7.70;99.90;;;;;;5012819;28;20048;-79
2022/03/27 08:54:01;;;;;;;23.73;4.78;;;7.70;99.90;;;;;;4931701;29;20055;-78
2022/03/27 08:56:29;;;;;;;30.35;4.88;;;7.60;99.90;;;;;;4933754;29;20055;-74
2022/03/27 08:58:57;;;;;;;20.52;4.35;;;7.70;99.90;;;;;;4932191;29;20079;-81
2022/03/27 09:01:23;;;;;;;22.77;5.65;;;7.60;99.90;;;;;;4932614;29;20500;-72
2022/03/27 09:03:49;;;;;;;19.05;3.88;;;7.60;99.90;;;;;;4932400;29;20059;-79
2022/03/27 09:06:15;;;;;;;16.05;3.92;;;7.80;99.90;;;;;;4916556;29;20040;-77
2022/03/27 09:08:41;;;;;;;18.75;4.32;;;8.00;99.90;;;;;;4932113;29;20054;-79
2022/03/27 09:11:12;;;;;;;12.73;4.78;;;8.40;99.90;;;;;;4928686;29;20211;-76
2022/03/27 09:13:39;;;;;;;26.23;4.45;;;8.90;99.90;;;;;;4931847;29;20046;-73
2022/03/27 09:16:07;;;;;;;16.75;3.58;;;8.40;99.90;;;;;;4932695;29;20052;-75
2022/03/27 09:18:52;;;;;;;23.67;4.47;;;8.50;99.90;;;;;;4933535;29;20154;-72
2022/03/27 09:21:20;;;;;;;19.83;3.85;;;8.60;99.90;;;;;;4932651;29;20052;-78
2022/03/27 09:23:53;;;;;;;23.98;5.15;;;8.80;99.90;;;;;;4916490;29;20419;-80
2022/03/27 09:26:20;;;;;;;29.45;3.58;;;8.50;99.90;;;;;;4933224;29;20770;-69
2022/03/27 09:28:53;;;;;;;21.48;4.32;;;8.90;99.90;;;;;;4946130;28;20050;-72
2022/03/27 09:31:19;;;;;;;19.58;3.83;;;8.50;99.90;;;;;;5011302;28;20497;-76
2022/03/27 09:33:50;;;;;;;22.00;4.53;;;8.60;99.90;;;;;;5011694;28;20199;-80
2022/03/27 09:36:23;;;;;;;20.02;3.50;;;8.60;99.90;;;;;;5011609;28;20048;-80
2022/03/27 09:39:17;;;;;;;22.70;4.07;;;8.80;99.90;;;;;;4993344;28;20121;-78
2022/03/27 09:41:48;;;;;;;22.52;3.88;;;8.90;99.90;;;;;;4997087;28;20057;-73
2022/03/27 09:44:23;;;;;;;21.20;4.22;;;8.90;99.90;;;;;;4998079;28;20137;-77
2022/03/27 09:46:55;;;;;;;19.00;3.55;;;8.90;99.90;;;;;;5016187;28;20511;-71
2022/03/27 09:49:37;;;;;;;23.92;4.20;;;9.00;99.90;;;;;;5014996;28;20057;-79
2022/03/27 09:52:10;;;;;;;20.38;4.43;;;9.10;99.90;;;;;;5014780;28;20048;-72
2022/03/27 09:54:55;;;;;;;27.20;5.20;;;9.20;99.90;;;;;;5013306;28;20046;-71
2022/03/27 09:57:28;;;;;;;19.85;3.35;;;9.20;99.90;;;;;;5014161;28;20045;-71
2022/03/27 10:00:11;;;;;;;22.17;4.32;;;9.30;99.90;;;;;;5018166;28;20030;-73
2022/03/27 10:02:38;;;;;;;25.17;3.90;;;9.30;99.90;;;;;;5025615;28;20083;-76
2022/03/27 10:05:09;;;;;;;18.70;3.83;;;9.40;99.90;;;;;;5024034;28;21272;-71
2022/03/27 10:07:42;;;;;;;16.48;4.43;;;9.50;99.90;;;;;;5002292;28;20493;-71
2022/03/27 10:10:13;;;;;;;22.83;4.20;;;9.70;99.90;;;;;;4998677;28;20124;-78
2022/03/27 10:12:40;;;;;;;19.88;4.22;;;9.90;99.90;;;;;;5017255;28;20042;-80
2022/03/27 10:15:12;;;;;;;14.27;3.33;;;10.00;99.90;;;;;;4997126;28;20062;-71
2022/03/27 10:17:39;;;;;;;17.20;4.33;;;9.90;99.90;;;;;;5014550;28;20045;-79
2022/03/27 10:20:13;;;;;;;19.33;4.70;;;10.20;99.90;;;;;;5014918;28;20272;-81
2022/03/27 10:22:56;;;;;;;19.33;5.10;;;10.00;99.90;;;;;;5013336;28;20088;-72
2022/03/27 10:25:24;;;;;;;14.85;4.38;;;10.00;99.90;;;;;;5011779;28;20050;-71
2022/03/27 10:27:51;;;;;;;31.40;4.47;;;10.10;99.90;;;;;;5013235;28;20493;-74
2022/03/27 10:30:17;;;;;;;23.45;4.45;;;10.10;99.90;;;;;;5013199;28;20073;-75
2022/03/27 10:32:43;;;;;;;16.25;4.82;;;10.10;99.90;;;;;;5013142;28;20048;-70
2022/03/27 10:35:15;;;;;;;19.40;5.95;;;10.40;99.90;;;;;;4995215;28;20124;-69
2022/03/27 10:37:53;;;;;;;19.70;4.63;;;10.50;99.90;;;;;;5013673;28;20103;-72
2022/03/27 10:40:26;;;;;;;25.35;6.00;;;10.50;99.90;;;;;;5014462;28;20836;-76
2022/03/27 10:43:15;;;;;;;22.13;3.63;;;10.60;99.90;;;;;;5011980;28;20038;-77
2022/03/27 10:45:41;;;;;;;17.45;4.60;;;10.70;99.90;;;;;;4996394;28;20045;-70
2022/03/27 10:48:15;;;;;;;18.00;3.75;;;10.70;99.90;;;;;;5014356;28;20045;-77
2022/03/27 10:50:58;;;;;;;14.45;3.85;;;10.90;99.90;;;;;;5012512;28;20060;-80
2022/03/27 10:53:26;;;;;;;22.17;4.30;;;10.90;99.90;;;;;;5012311;28;20049;-73
2022/03/27 10:55:53;;;;;;;22.13;4.22;;;11.00;99.90;;;;;;5012676;28;20059;-80
2022/03/27 10:58:30;;;;;;;21.58;5.18;;;11.20;99.90;;;;;;4995582;28;20147;-79
2022/03/27 11:01:23;;;;;;;15.93;3.95;;;11.30;99.90;;;;;;4994860;28;20042;-74
2022/03/27 11:04:04;;;;;;;18.55;4.30;;;11.40;99.90;;;;;;5010296;28;20045;-71
2022/03/27 11:06:32;;;;;;;21.77;4.28;;;11.40;99.90;;;;;;5012117;28;20113;-72
2022/03/27 11:08:59;;;;;;;23.88;4.70;;;11.50;99.90;;;;;;5010678;28;20058;-70
2022/03/27 11:11:37;;;;;;;22.80;5.03;;;11.60;99.90;;;;;;5011759;28;20048;-74
2022/03/27 11:14:03;;;;;;;17.83;4.72;;;11.70;99.90;;;;;;4992033;28;20046;-72
2022/03/27 11:16:29;;;;;;;14.07;3.60;;;11.70;99.90;;;;;;5012521;28;20108;-72
2022/03/27 11:18:55;;;;;;;21.85;4.40;;;12.00;99.90;;;;;;4994887;28;20139;-71
2022/03/27 11:21:29;;;;;;;23.65;5.53;;;11.90;99.90;;;;;;5012044;28;20041;-69
2022/03/27 11:24:04;;;;;;;17.55;3.65;;;11.90;99.90;;;;;;4995395;28;20054;-71
2022/03/27 11:26:29;;;;;;;16.00;3.90;;;12.00;99.90;;;;;;5013368;28;20052;-73
2022/03/27 11:29:04;;;;;;;17.33;3.92;;;12.00;99.90;;;;;;5013262;28;20042;-75
2022/03/27 11:31:35;;;;;;;17.75;3.65;;;12.00;99.90;;;;;;5013232;28;20045;-79
2022/03/27 11:34:14;;;;;;;19.23;3.83;;;12.00;99.90;;;;;;5013145;28;20093;-72
2022/03/27 11:37:13;;;;;;;14.93;4.00;;;12.10;99.90;;;;;;5012999;28;20551;-74
2022/03/27 11:39:39;;;;;;;23.92;5.43;;;12.20;99.90;;;;;;4995743;28;20087;-73
2022/03/27 11:42:21;;;;;;;20.25;4.97;;;12.30;99.90;;;;;;5012622;28;20057;-71
2022/03/27 11:47:43;;;;;;;16.27;4.10;;;12.30;99.90;;;;;;4997116;28;20517;-76
2022/03/27 11:50:23;;;;;;;14.95;3.33;;;12.50;99.90;;;;;;5005638;28;20054;-73
2022/03/27 11:52:48;;;;;;;16.80;3.60;;;12.60;99.90;;;;;;5027972;28;20049;-75
2022/03/27 11:55:14;;;;;;;11.23;3.08;;;12.60;99.90;;;;;;5024461;28;20029;-80
2022/03/27 11:57:45;;;;;;;15.00;3.08;;;12.60;99.90;;;;;;5017604;28;20544;-72
2022/03/27 12:00:13;;;;;;;17.15;4.53;;;12.70;99.90;;;;;;5017218;28;20042;-77
2022/03/27 12:02:44;;;;;;;18.17;3.58;;;12.80;99.90;;;;;;4980641;28;20045;-69
2022/03/27 12:05:12;;;;;;;18.58;3.50;;;12.80;99.90;;;;;;5004470;28;20108;-75
2022/03/27 12:07:51;;;;;;;14.95;3.53;;;12.80;99.90;;;;;;5021466;28;20046;-72
2022/03/27 12:10:17;;;;;;;12.30;3.22;;;12.90;99.90;;;;;;5017810;28;20112;-80
2022/03/27 12:13:07;;;;;;;11.85;2.88;;;13.10;99.90;;;;;;5019138;28;20073;-70
2022/03/27 12:15:49;;;;;;;17.05;4.13;;;13.10;99.90;;;;;;4990721;28;20061;-72
2022/03/27 12:18:26;;;;;;;15.77;4.10;;;13.30;99.90;;;;;;4993034;28;20512;-77
2022/03/27 12:20:52;;;;;;;22.02;4.00;;;13.30;99.90;;;;;;5013608;28;20096;-73
2022/03/27 12:23:35;;;;;;;15.77;3.35;;;13.40;99.90;;;;;;5013166;28;20445;-76
2022/03/27 12:31:51;;;;;;;21.17;4.18;;;13.40;99.90;;;;;;4993193;28;20060;-76
2022/03/27 12:34:18;;;;;;;15.82;3.45;;;13.50;99.90;;;;;;5012789;28;20489;-71
2022/03/27 12:37:08;;;;;;;19.65;4.28;;;13.60;99.90;;;;;;5012552;28;20056;-74
2022/03/27 12:39:58;;;;;;;12.65;3.25;;;13.60;99.90;;;;;;5011901;28;20140;-73
2022/03/27 12:42:35;;;;;;;10.82;3.10;;;13.70;99.90;;;;;;5012126;28;20061;-70
2022/03/27 12:45:23;;;;;;;15.45;3.35;;;13.70;99.90;;;;;;5012297;28;20100;-71
2022/03/27 12:48:01;;;;;;;18.10;4.10;;;13.70;99.90;;;;;;4999924;28;20062;-72
2022/03/27 12:50:27;;;;;;;17.65;3.50;;;13.60;99.90;;;;;;5012166;28;20045;-74
2022/03/27 12:52:57;;;;;;;18.67;3.88;;;13.60;99.90;;;;;;5012510;28;20045;-75
2022/03/27 12:55:40;;;;;;;11.73;2.83;;;13.80;99.90;;;;;;5013454;28;20401;-71
2022/03/27 12:58:06;;;;;;;16.33;4.32;;;13.80;99.90;;;;;;5007974;28;20049;-68
2022/03/27 13:00:34;;;;;;;16.70;3.92;;;13.90;99.90;;;;;;5010072;28;20062;-72
2022/03/27 13:03:16;;;;;;;17.55;3.72;;;13.90;99.90;;;;;;5012093;28;20044;-71
2022/03/27 13:06:03;;;;;;;13.70;3.40;;;13.80;99.90;;;;;;5011959;28;20116;-71
2022/03/27 13:08:39;;;;;;;15.15;2.97;;;13.80;99.90;;;;;;5009027;28;20615;-69
2022/03/27 13:11:08;;;;;;;14.15;3.17;;;13.80;99.90;;;;;;5006952;28;20417;-69